createdAt,value
2022-10-24T00:01:15.334Z,4.00
2022-10-24T00:03:42.696Z,4.20
2022-10-24T00:06:10.384Z,4.00
2022-10-24T00:08:37.865Z,4.20
2022-10-24T00:11:09.341Z,4.47
2022-10-24T00:13:36.441Z,5.10
2022-10-24T00:16:03.549Z,4.80
2022-10-24T00:18:30.617Z,5.37
2022-10-24T00:20:57.905Z,5.30
2022-10-24T00:23:24.970Z,5.03
2022-10-24T00:25:52.068Z,5.23
2022-10-24T00:28:19.291Z,6.17
2022-10-24T00:30:46.385Z,6.53
2022-10-24T00:33:13.479Z,6.37
2022-10-24T00:35:40.575Z,6.33
2022-10-24T00:38:07.644Z,6.83
2022-10-24T00:40:34.821Z,7.03
2022-10-24T00:43:01.893Z,7.07
2022-10-24T00:45:55.316Z,8.43
2022-10-24T00:48:25.565Z,8.17
2022-10-24T00:50:58.662Z,8.40
2022-10-24T00:53:27.563Z,7.20
2022-10-24T00:55:56.505Z,8.13
2022-10-24T00:58:25.262Z,7.87
2022-10-24T01:00:52.434Z,7.07
2022-10-24T01:03:19.686Z,7.53
2022-10-24T01:06:02.227Z,7.03
2022-10-24T01:08:39.726Z,6.97
2022-10-24T01:11:12.534Z,6.77
2022-10-24T01:13:45.470Z,7.13
2022-10-24T01:16:15.357Z,7.47
2022-10-24T01:18:50.831Z,6.63
2022-10-24T01:21:33.216Z,7.17
2022-10-24T01:24:00.325Z,7.00
2022-10-24T01:26:49.679Z,6.90
2022-10-24T01:29:19.557Z,7.20
2022-10-24T01:31:50.495Z,6.80
2022-10-24T01:34:40.525Z,7.20
2022-10-24T01:37:10.477Z,6.83
2022-10-24T01:39:41.666Z,6.97
2022-10-24T01:42:09.973Z,6.50
2022-10-24T01:44:40.332Z,6.67
2022-10-24T01:47:11.792Z,6.73
2022-10-24T01:49:40.171Z,6.50
2022-10-24T01:52:10.769Z,6.47
2022-10-24T01:54:39.642Z,7.33
2022-10-24T01:57:06.737Z,6.87
2022-10-24T01:59:33.812Z,6.40
2022-10-24T02:02:07.272Z,6.97
2022-10-24T02:04:36.722Z,6.97
2022-10-24T02:07:05.343Z,6.70
2022-10-24T02:09:33.840Z,7.20
2022-10-24T02:12:01.552Z,7.00
2022-10-24T02:14:31.282Z,7.73
2022-10-24T02:16:58.366Z,7.90
2022-10-24T02:19:25.540Z,7.47
2022-10-24T02:21:58.465Z,8.47
2022-10-24T02:24:30.774Z,8.50
2022-10-24T02:27:00.864Z,8.30
2022-10-24T02:29:34.996Z,8.80
2022-10-24T02:32:02.916Z,9.30
2022-10-24T02:34:33.037Z,9.40
2022-10-24T02:37:00.358Z,9.60
2022-10-24T02:39:28.400Z,9.47
2022-10-24T02:41:56.398Z,8.87
2022-10-24T02:44:24.253Z,9.00
2022-10-24T02:46:53.409Z,8.43
2022-10-24T02:49:20.601Z,7.77
2022-10-24T02:51:48.141Z,7.77
2022-10-24T02:54:15.390Z,8.00
2022-10-24T02:56:45.285Z,8.13
2022-10-24T02:59:12.415Z,8.20
2022-10-24T03:01:39.530Z,8.13
2022-10-24T03:04:06.923Z,8.10
2022-10-24T03:06:34.021Z,9.83
2022-10-24T03:09:01.186Z,8.27
2022-10-24T03:11:28.289Z,7.97
2022-10-24T03:13:55.397Z,7.40
2022-10-24T03:16:22.522Z,8.43
2022-10-24T03:18:49.617Z,8.00
2022-10-24T03:21:16.806Z,7.80
2022-10-24T03:23:43.857Z,7.50
2022-10-24T03:26:10.918Z,8.87
2022-10-24T03:28:38.072Z,8.30
2022-10-24T03:31:05.466Z,7.67
2022-10-24T03:33:32.804Z,7.80
2022-10-24T03:36:00.137Z,8.40
2022-10-24T03:38:27.362Z,7.73
2022-10-24T03:40:54.445Z,7.70
2022-10-24T03:43:21.558Z,8.07
2022-10-24T03:45:48.671Z,8.20
2022-10-24T03:48:15.781Z,8.10
2022-10-24T03:50:42.895Z,7.30
2022-10-24T03:53:09.991Z,7.30
2022-10-24T03:55:37.113Z,7.60
2022-10-24T03:58:04.333Z,7.00
2022-10-24T04:00:34.330Z,6.77
2022-10-24T04:03:01.521Z,6.33
2022-10-24T04:05:28.704Z,6.70
2022-10-24T04:07:55.798Z,6.17
2022-10-24T04:10:22.941Z,6.10
2022-10-24T04:12:50.029Z,6.40
2022-10-24T04:15:17.136Z,5.20
2022-10-24T04:17:44.452Z,5.40
2022-10-24T04:20:12.082Z,5.50
2022-10-24T04:22:39.407Z,5.23
2022-10-24T04:25:06.745Z,5.50
2022-10-24T04:27:34.433Z,5.10
2022-10-24T04:30:01.535Z,5.40
2022-10-24T04:32:28.610Z,5.07
2022-10-24T04:34:55.723Z,4.73
2022-10-24T04:37:22.868Z,4.90
2022-10-24T04:39:49.962Z,5.23
2022-10-24T04:42:17.067Z,5.50
2022-10-24T04:44:44.166Z,5.83
2022-10-24T04:47:11.279Z,5.80
2022-10-24T04:49:38.391Z,5.73
2022-10-24T04:52:05.674Z,4.90
2022-10-24T04:54:32.791Z,5.27
2022-10-24T04:56:59.890Z,5.07
2022-10-24T04:59:26.976Z,4.77
2022-10-24T05:01:54.922Z,4.33
2022-10-24T05:04:22.275Z,4.73
2022-10-24T05:06:49.370Z,5.10
2022-10-24T05:09:16.418Z,4.90
2022-10-24T05:11:45.122Z,5.63
2022-10-24T05:14:12.239Z,5.23
2022-10-24T05:16:39.798Z,4.97
2022-10-24T05:19:07.143Z,4.23
2022-10-24T05:21:34.253Z,6.17
2022-10-24T05:24:01.338Z,5.93
2022-10-24T05:26:28.631Z,5.47
2022-10-24T05:28:55.822Z,5.73
2022-10-24T05:31:23.141Z,5.97
2022-10-24T05:33:50.247Z,5.00
2022-10-24T05:36:17.566Z,4.80
2022-10-24T05:38:44.667Z,5.07
2022-10-24T05:41:11.733Z,5.30
2022-10-24T05:43:38.785Z,5.43
2022-10-24T05:46:07.386Z,5.63
2022-10-24T05:48:34.457Z,5.63
2022-10-24T05:51:01.542Z,5.73
2022-10-24T05:53:28.642Z,5.80
2022-10-24T05:55:55.725Z,6.13
2022-10-24T05:58:22.848Z,5.53
2022-10-24T06:00:53.865Z,6.17
2022-10-24T06:03:21.549Z,5.43
2022-10-24T06:05:48.798Z,6.10
2022-10-24T06:08:15.891Z,5.27
2022-10-24T06:10:46.580Z,6.20
2022-10-24T06:13:13.694Z,6.00
2022-10-24T06:15:42.221Z,6.33
2022-10-24T06:18:09.299Z,6.20
2022-10-24T06:20:37.169Z,5.67
2022-10-24T06:23:04.230Z,5.63
2022-10-24T06:25:31.318Z,5.70
2022-10-24T06:27:58.461Z,5.90
2022-10-24T06:30:25.585Z,5.87
2022-10-24T06:32:52.677Z,5.03
2022-10-24T06:35:19.800Z,5.40
2022-10-24T06:37:48.212Z,6.17
2022-10-24T06:40:15.810Z,5.60
2022-10-24T06:42:42.925Z,6.53
2022-10-24T06:45:10.224Z,6.60
2022-10-24T06:47:37.370Z,6.40
2022-10-24T06:50:04.835Z,6.80
2022-10-24T06:52:32.060Z,6.60
2022-10-24T06:54:59.133Z,7.00
2022-10-24T06:57:26.273Z,6.00
2022-10-24T06:59:53.648Z,5.20
2022-10-24T07:02:21.220Z,5.03
2022-10-24T07:04:48.433Z,4.93
2022-10-24T07:07:19.851Z,5.17
2022-10-24T07:09:52.269Z,4.33
2022-10-24T07:14:46.372Z,4.17
2022-10-24T07:17:13.437Z,3.80
2022-10-24T07:19:40.513Z,3.50
2022-10-24T07:22:07.716Z,3.70
2022-10-24T07:24:35.192Z,3.60
2022-10-24T07:27:02.319Z,3.10
2022-10-24T07:29:29.413Z,3.57
2022-10-24T07:31:58.353Z,3.70
2022-10-24T07:34:25.655Z,4.30
2022-10-24T07:36:52.826Z,4.00
2022-10-24T07:39:19.958Z,3.90
2022-10-24T07:41:47.057Z,3.30
2022-10-24T07:44:14.117Z,4.03
2022-10-24T07:46:42.459Z,3.77
2022-10-24T07:49:09.688Z,3.40
2022-10-24T07:51:36.852Z,3.30
2022-10-24T07:54:04.264Z,2.93
2022-10-24T07:56:31.389Z,3.00
2022-10-24T07:58:58.881Z,2.60
2022-10-24T08:01:26.587Z,2.90
2022-10-24T08:03:53.811Z,2.60
2022-10-24T08:06:23.097Z,2.50
2022-10-24T08:08:50.250Z,2.40
2022-10-24T08:11:21.860Z,2.30
2022-10-24T08:13:49.711Z,2.30
2022-10-24T08:16:17.645Z,2.60
2022-10-24T08:18:44.859Z,2.43
2022-10-24T08:21:13.032Z,2.37
2022-10-24T08:23:41.466Z,2.30
2022-10-24T08:26:09.252Z,2.27
2022-10-24T08:28:36.970Z,2.20
2022-10-24T08:31:06.313Z,2.40
2022-10-24T08:33:33.575Z,2.10
2022-10-24T08:36:01.885Z,2.63
2022-10-24T08:38:29.511Z,2.30
2022-10-24T08:40:56.956Z,2.73
2022-10-24T08:43:24.615Z,2.43
2022-10-24T08:46:10.265Z,2.50
2022-10-24T08:48:46.263Z,2.53
2022-10-24T08:51:31.679Z,2.67
2022-10-24T08:53:59.571Z,2.43
2022-10-24T08:56:27.845Z,2.50
2022-10-24T08:58:55.206Z,2.60
2022-10-24T09:01:32.625Z,2.70
2022-10-24T09:04:01.034Z,2.77
2022-10-24T09:06:29.415Z,2.77
2022-10-24T09:08:58.750Z,2.57
2022-10-24T09:11:28.694Z,2.57
2022-10-24T09:13:55.830Z,2.67
2022-10-24T09:16:24.102Z,2.70
2022-10-24T09:18:53.306Z,2.87
2022-10-24T09:21:20.578Z,3.13
2022-10-24T09:23:47.919Z,3.17
2022-10-24T09:26:17.565Z,2.97
2022-10-24T09:28:45.363Z,3.13
2022-10-24T09:31:20.268Z,3.73
2022-10-24T09:33:48.344Z,5.97
2022-10-24T09:36:17.385Z,3.87
2022-10-24T09:38:45.248Z,3.80
2022-10-24T09:41:15.403Z,3.30
2022-10-24T09:43:50.280Z,4.13
2022-10-24T09:46:22.108Z,3.93
2022-10-24T09:48:49.470Z,3.53
2022-10-24T09:51:32.899Z,3.97
2022-10-24T09:54:08.115Z,4.67
2022-10-24T09:56:36.883Z,4.40
2022-10-24T09:59:26.338Z,4.20
2022-10-24T10:01:53.576Z,3.73
2022-10-24T10:04:20.870Z,3.70
2022-10-24T10:06:49.445Z,3.23
2022-10-24T10:09:24.623Z,3.00
2022-10-24T10:12:05.795Z,3.23
2022-10-24T10:14:33.033Z,3.40
2022-10-24T10:17:05.329Z,3.00
2022-10-24T10:19:38.703Z,2.87
2022-10-24T10:22:07.290Z,2.77
2022-10-24T10:24:42.150Z,2.50
2022-10-24T10:27:30.250Z,2.20
2022-10-24T10:30:13.404Z,2.60
2022-10-24T10:33:00.743Z,2.60
2022-10-24T10:35:33.645Z,2.47
2022-10-24T10:38:11.345Z,3.00
2022-10-24T10:40:41.075Z,2.73
2022-10-24T10:43:17.058Z,2.47
2022-10-24T10:45:48.904Z,2.97
2022-10-24T10:48:19.214Z,2.30
2022-10-24T10:50:56.446Z,2.63
2022-10-24T10:53:23.537Z,2.70
2022-10-24T10:55:53.414Z,2.37
2022-10-24T10:58:26.620Z,2.43
2022-10-24T11:01:01.234Z,2.87
2022-10-24T11:03:34.962Z,2.70
2022-10-24T11:06:09.002Z,2.50
2022-10-24T11:08:54.591Z,2.57
2022-10-24T11:11:25.290Z,2.50
2022-10-24T11:13:55.266Z,2.37
2022-10-24T11:16:25.065Z,2.70
2022-10-24T11:18:53.384Z,2.27
2022-10-24T11:21:22.110Z,2.37
2022-10-24T11:23:54.629Z,2.13
2022-10-24T11:26:21.692Z,2.90
2022-10-24T11:29:15.539Z,2.53
2022-10-24T11:31:49.044Z,2.37
2022-10-24T11:34:16.125Z,2.17
2022-10-24T11:36:43.161Z,2.30
2022-10-24T11:39:16.243Z,2.23
2022-10-24T11:41:46.143Z,2.43
2022-10-24T11:44:18.535Z,2.20
2022-10-24T11:46:50.634Z,2.50
2022-10-24T11:49:31.753Z,2.60
2022-10-24T11:52:06.354Z,2.10
2022-10-24T11:54:35.723Z,2.70
2022-10-24T11:57:04.821Z,2.10
2022-10-24T11:59:31.899Z,3.13
2022-10-24T12:02:22.126Z,2.07
2022-10-24T12:04:58.625Z,2.17
2022-10-24T12:07:44.844Z,2.70
2022-10-24T12:10:12.221Z,2.50
2022-10-24T12:12:51.826Z,2.17
2022-10-24T12:15:26.930Z,2.63
2022-10-24T12:18:03.142Z,2.23
2022-10-24T12:20:31.245Z,2.33
2022-10-24T12:22:58.725Z,2.77
2022-10-24T12:25:35.455Z,2.40
2022-10-24T12:28:12.150Z,2.37
2022-10-24T12:30:39.338Z,1.73
2022-10-24T12:33:11.582Z,2.40
2022-10-24T12:35:44.387Z,2.27
2022-10-24T12:38:37.611Z,1.90
2022-10-24T12:41:24.953Z,2.40
2022-10-24T12:43:52.078Z,2.33
2022-10-24T12:46:23.427Z,2.00
2022-10-24T12:48:59.841Z,2.43
2022-10-24T12:51:29.133Z,2.03
2022-10-24T12:54:02.310Z,2.27
2022-10-24T12:56:30.300Z,2.37
2022-10-24T12:58:58.786Z,2.27
2022-10-24T13:01:29.812Z,2.10
2022-10-24T13:04:03.224Z,2.90
2022-10-24T13:06:34.878Z,2.33
2022-10-24T13:09:07.991Z,2.40
2022-10-24T13:11:54.031Z,2.23
2022-10-24T13:14:50.874Z,2.53
2022-10-24T13:17:24.241Z,2.13
2022-10-24T13:20:09.989Z,2.40
2022-10-24T13:22:37.498Z,2.90
2022-10-24T13:25:22.052Z,2.43
2022-10-24T13:28:09.090Z,2.30
2022-10-24T13:30:36.226Z,2.40
2022-10-24T13:33:21.688Z,2.45
2022-10-24T13:35:48.847Z,2.30
2022-10-24T13:38:16.509Z,2.43
2022-10-24T13:40:45.042Z,3.03
2022-10-24T13:43:16.628Z,1.92
2022-10-24T13:45:54.877Z,2.50
2022-10-24T13:48:23.036Z,2.45
2022-10-24T13:51:09.051Z,2.20
2022-10-24T13:53:42.494Z,2.35
2022-10-24T13:56:11.261Z,2.55
2022-10-24T13:58:41.001Z,2.30
2022-10-24T14:01:22.293Z,2.05
2022-10-24T14:03:50.079Z,2.15
2022-10-24T14:06:17.207Z,2.20
2022-10-24T14:08:53.980Z,2.13
2022-10-24T14:11:27.680Z,2.63
2022-10-24T14:13:56.272Z,2.15
2022-10-24T14:16:26.397Z,2.47
2022-10-24T14:19:12.462Z,2.50
2022-10-24T14:21:45.841Z,2.10
2022-10-24T14:24:16.895Z,2.55
2022-10-24T14:26:45.632Z,2.20
2022-10-24T14:29:20.595Z,2.53
2022-10-24T14:31:54.577Z,3.10
2022-10-24T14:34:23.113Z,2.30
2022-10-24T14:36:50.399Z,2.80
2022-10-24T14:39:23.658Z,2.50
2022-10-24T14:41:52.115Z,2.53
2022-10-24T14:44:19.811Z,2.67
2022-10-24T14:46:47.922Z,2.70
2022-10-24T14:49:26.899Z,2.83
2022-10-24T14:52:13.063Z,2.60
2022-10-24T14:54:42.518Z,2.57
2022-10-24T14:57:17.159Z,2.63
2022-10-24T14:59:46.248Z,2.65
2022-10-24T15:02:21.493Z,2.60
2022-10-24T15:04:48.781Z,2.45
2022-10-24T15:07:25.029Z,2.65
2022-10-24T15:10:21.557Z,2.45
2022-10-24T15:12:54.610Z,2.28
2022-10-24T15:15:25.121Z,3.00
2022-10-24T15:17:52.804Z,2.83
2022-10-24T15:20:22.133Z,2.40
2022-10-24T15:22:55.455Z,2.40
2022-10-24T15:25:25.030Z,2.60
2022-10-24T15:27:59.209Z,3.22
2022-10-24T15:30:28.242Z,2.90
2022-10-24T15:32:56.006Z,2.63
2022-10-24T15:35:23.075Z,2.60
2022-10-24T15:37:54.536Z,2.23
2022-10-24T15:40:22.985Z,2.77
2022-10-24T15:42:50.206Z,2.87
2022-10-24T15:45:17.705Z,3.10
2022-10-24T15:47:45.111Z,2.50
2022-10-24T15:50:15.888Z,3.00
2022-10-24T15:52:43.937Z,2.77
2022-10-24T15:55:16.750Z,2.57
2022-10-24T15:57:44.190Z,3.00
2022-10-24T16:00:11.788Z,3.57
2022-10-24T16:02:38.931Z,4.17
2022-10-24T16:05:06.290Z,5.10
2022-10-24T16:07:33.369Z,3.30
2022-10-24T16:10:00.456Z,3.23
2022-10-24T16:12:27.735Z,3.07
2022-10-24T16:14:54.818Z,2.80
2022-10-24T16:17:21.866Z,3.13
2022-10-24T16:19:49.059Z,2.63
2022-10-24T16:22:16.324Z,3.20
2022-10-24T16:24:43.376Z,3.60
2022-10-24T16:27:10.461Z,2.90
2022-10-24T16:29:37.511Z,3.00
2022-10-24T16:32:04.678Z,3.30
2022-10-24T16:34:31.783Z,3.07
2022-10-24T16:36:58.890Z,2.90
2022-10-24T16:39:26.074Z,2.53
2022-10-24T16:41:58.310Z,2.70
2022-10-24T16:44:27.196Z,3.20
2022-10-24T16:46:54.654Z,2.80
2022-10-24T16:49:21.795Z,2.90
2022-10-24T16:51:48.904Z,3.17
2022-10-24T16:54:15.997Z,2.63
2022-10-24T16:56:44.059Z,3.23
2022-10-24T16:59:14.579Z,3.03
2022-10-24T17:01:43.016Z,3.20
2022-10-24T17:04:10.287Z,3.27
2022-10-24T17:06:37.375Z,3.60
2022-10-24T17:09:04.515Z,2.87
2022-10-24T17:11:46.965Z,3.67
2022-10-24T17:14:14.252Z,3.53
2022-10-24T17:16:41.819Z,3.63
2022-10-24T17:19:17.214Z,3.13
2022-10-24T17:21:46.823Z,3.13
2022-10-24T17:24:14.747Z,3.30
2022-10-24T17:26:42.463Z,3.37
2022-10-24T17:29:12.892Z,2.90
2022-10-24T17:31:40.012Z,2.90
2022-10-24T17:34:07.230Z,3.23
2022-10-24T17:36:37.199Z,3.20
2022-10-24T17:39:10.062Z,4.43
2022-10-24T17:41:40.743Z,3.10
2022-10-24T17:44:08.286Z,3.47
2022-10-24T17:46:35.478Z,2.67
2022-10-24T17:49:02.532Z,3.73
2022-10-24T17:51:32.361Z,2.63
2022-10-24T17:53:59.463Z,4.47
2022-10-24T17:56:26.546Z,3.10
2022-10-24T17:58:53.622Z,2.80
2022-10-24T18:01:20.976Z,3.27
2022-10-24T18:03:48.121Z,3.00
2022-10-24T18:06:15.446Z,3.60
2022-10-24T18:08:42.497Z,3.30
2022-10-24T18:11:09.679Z,2.87
2022-10-24T18:13:37.519Z,3.10
2022-10-24T18:16:11.936Z,2.47
2022-10-24T18:18:42.818Z,3.13
2022-10-24T18:21:10.985Z,2.63
2022-10-24T18:23:38.842Z,2.73
2022-10-24T18:26:06.961Z,2.63
2022-10-24T18:28:37.221Z,2.70
2022-10-24T18:31:11.582Z,2.63
2022-10-24T18:33:38.899Z,2.50
2022-10-24T18:36:07.389Z,3.00
2022-10-24T18:38:35.209Z,2.50
2022-10-24T18:41:02.489Z,2.30
2022-10-24T18:43:30.127Z,2.60
2022-10-24T18:45:57.505Z,2.53
2022-10-24T18:48:24.706Z,2.40
2022-10-24T18:50:51.879Z,2.53
2022-10-24T18:53:23.111Z,2.23
2022-10-24T18:55:50.752Z,2.67
2022-10-24T18:58:19.486Z,2.23
2022-10-24T19:00:46.948Z,2.47
2022-10-24T19:03:30.035Z,2.40
2022-10-24T19:06:09.565Z,2.57
2022-10-24T19:08:36.858Z,2.40
2022-10-24T19:11:04.103Z,2.47
2022-10-24T19:13:31.284Z,2.33
2022-10-24T19:16:00.196Z,2.60
2022-10-24T19:18:29.389Z,2.67
2022-10-24T19:20:56.529Z,2.27
2022-10-24T19:23:24.702Z,2.20
2022-10-24T19:25:52.044Z,2.47
2022-10-24T19:28:20.137Z,2.60
2022-10-24T19:30:47.631Z,2.60
2022-10-24T19:33:15.331Z,2.43
2022-10-24T19:35:47.147Z,2.50
2022-10-24T19:38:15.097Z,2.50
2022-10-24T19:40:52.415Z,2.07
2022-10-24T19:43:20.171Z,2.70
2022-10-24T19:45:54.940Z,2.40
2022-10-24T19:48:34.638Z,2.63
2022-10-24T19:51:04.978Z,2.20
2022-10-24T19:53:36.169Z,2.37
2022-10-24T19:56:04.523Z,2.50
2022-10-24T19:58:31.665Z,2.20
2022-10-24T20:01:05.486Z,2.33
2022-10-24T20:03:33.092Z,2.33
2022-10-24T20:06:00.375Z,2.23
2022-10-24T20:08:27.426Z,2.00
2022-10-24T20:10:54.689Z,2.57
2022-10-24T20:13:21.825Z,2.23
2022-10-24T20:15:55.295Z,2.33
2022-10-24T20:18:23.067Z,2.20
2022-10-24T20:20:50.326Z,2.30
2022-10-24T20:23:18.025Z,2.40
2022-10-24T20:25:45.258Z,2.07
2022-10-24T20:28:12.371Z,2.30
2022-10-24T20:30:43.702Z,2.27
2022-10-24T20:33:10.826Z,2.57
2022-10-24T20:35:37.945Z,2.20
2022-10-24T20:38:04.995Z,2.33
2022-10-24T20:40:32.101Z,2.43
2022-10-24T20:43:01.940Z,2.20
2022-10-24T20:45:29.273Z,2.20
2022-10-24T20:47:56.336Z,2.40
2022-10-24T20:50:23.483Z,2.30
2022-10-24T20:52:52.165Z,2.27
2022-10-24T20:55:31.784Z,2.13
2022-10-24T20:58:06.628Z,2.00
2022-10-24T21:00:33.793Z,1.87
2022-10-24T21:03:00.929Z,2.30
2022-10-24T21:05:29.067Z,2.00
2022-10-24T21:07:56.308Z,1.70
2022-10-24T21:10:23.493Z,1.90
2022-10-24T21:12:50.919Z,1.70
2022-10-24T21:15:18.247Z,2.07
2022-10-24T21:17:45.677Z,1.80
2022-10-24T21:20:13.067Z,1.80
2022-10-24T21:22:40.129Z,1.60
2022-10-24T21:25:07.455Z,1.60
2022-10-24T21:27:34.534Z,1.60
2022-10-24T21:30:01.680Z,2.10
2022-10-24T21:32:28.789Z,1.60
2022-10-24T21:34:55.915Z,1.40
2022-10-24T21:37:23.031Z,1.40
2022-10-24T21:39:50.116Z,1.30
2022-10-24T21:42:17.222Z,1.40
2022-10-24T21:44:44.303Z,1.20
2022-10-24T21:47:11.384Z,1.20
2022-10-24T21:49:38.486Z,1.07
2022-10-24T21:52:05.540Z,1.10
2022-10-24T21:54:32.741Z,1.00
2022-10-24T21:56:59.871Z,1.30
2022-10-24T21:59:26.956Z,1.17
2022-10-24T22:01:54.195Z,1.33
2022-10-24T22:04:21.481Z,1.43
2022-10-24T22:06:48.629Z,1.27
2022-10-24T22:09:17.158Z,1.23
2022-10-24T22:11:44.796Z,1.50
2022-10-24T22:14:12.999Z,1.40
2022-10-24T22:16:40.331Z,1.27
2022-10-24T22:19:07.859Z,1.10
2022-10-24T22:21:36.231Z,1.10
2022-10-24T22:26:32.541Z,1.20
2022-10-24T22:28:59.837Z,1.40
2022-10-24T22:31:27.934Z,1.10
2022-10-24T22:33:55.445Z,1.27
2022-10-24T22:36:31.724Z,1.50
2022-10-24T22:38:58.935Z,1.00
2022-10-24T22:41:26.294Z,1.40
2022-10-24T22:43:53.533Z,1.20
2022-10-24T22:46:23.360Z,1.10
2022-10-24T22:48:53.036Z,1.20
2022-10-24T22:51:20.946Z,1.37
2022-10-24T22:53:48.227Z,1.40
2022-10-24T22:56:22.886Z,1.50
2022-10-24T22:58:50.404Z,1.27
2022-10-24T23:01:36.999Z,1.33
2022-10-24T23:04:08.223Z,1.20
2022-10-24T23:06:42.918Z,1.23
2022-10-24T23:09:11.312Z,1.43
2022-10-24T23:11:38.991Z,1.20
2022-10-24T23:14:06.477Z,1.07
2022-10-24T23:16:48.836Z,1.40
2022-10-24T23:19:20.375Z,1.20
2022-10-24T23:22:10.643Z,1.20
2022-10-24T23:24:37.940Z,1.00
2022-10-24T23:27:05.006Z,1.20
2022-10-24T23:29:35.890Z,1.10
2022-10-24T23:32:04.200Z,1.13
2022-10-24T23:34:31.468Z,1.47
2022-10-24T23:37:00.801Z,1.50
2022-10-24T23:39:30.871Z,1.10
2022-10-24T23:41:58.057Z,1.30
2022-10-24T23:44:25.304Z,1.60
2022-10-24T23:46:57.795Z,1.20
2022-10-24T23:49:33.269Z,1.43
2022-10-24T23:52:03.315Z,1.23
2022-10-24T23:54:32.170Z,1.50
2022-10-24T23:56:59.395Z,1.50
2022-10-24T23:59:26.462Z,1.30
